Time;durP1;ratioP1;P1;durP2;ratioP2;P2;SDS_P1;SDS_P2;PMS_P1;PMS_P2;Temp;Humidity;BMP_temperature;BMP_pressure;BME280_temperature;BME280_humidity;BME280_pressure;Samples;Min_cycle;Max_cycle;Signal;HPM_P1;HPM_P2
2021/11/03 00:01:31;;;;;;;13.48;7.63;;;8.60;99.80;;;;;;5014595;28;20358;-76
2021/11/03 00:03:57;;;;;;;13.18;7.75;;;8.60;99.80;;;;;;5014709;28;20026;-76
2021/11/03 00:06:23;;;;;;;14.07;7.38;;;8.50;99.90;;;;;;5013502;28;20021;-76
2021/11/03 00:08:51;;;;;;;16.52;8.60;;;8.50;99.90;;;;;;5014532;28;20022;-75
2021/11/03 00:11:17;;;;;;;14.63;7.38;;;8.50;99.90;;;;;;5014354;28;20030;-76
2021/11/03 00:13:44;;;;;;;13.82;8.05;;;8.50;99.90;;;;;;5013189;28;20022;-76
2021/11/03 00:16:10;;;;;;;15.15;8.20;;;8.50;99.90;;;;;;5013052;28;20421;-76
2021/11/03 00:18:36;;;;;;;12.82;6.90;;;8.60;99.80;;;;;;5012928;28;20032;-76
2021/11/03 00:21:03;;;;;;;14.23;8.13;;;8.60;99.80;;;;;;5013000;28;20468;-78
2021/11/03 00:23:29;;;;;;;13.40;7.35;;;8.70;99.70;;;;;;5012885;28;20049;-76
2021/11/03 00:25:55;;;;;;;16.95;8.43;;;8.70;99.60;;;;;;5013959;28;20409;-76
2021/11/03 00:28:23;;;;;;;16.58;8.40;;;8.70;99.50;;;;;;5013913;28;20098;-76
2021/11/03 00:30:52;;;;;;;18.10;8.60;;;8.80;99.50;;;;;;5012604;28;20042;-76
2021/11/03 00:33:18;;;;;;;12.15;7.00;;;8.80;99.40;;;;;;5014174;28;20081;-77
2021/11/03 00:35:44;;;;;;;15.07;7.95;;;8.80;99.40;;;;;;5012729;28;20465;-78
2021/11/03 00:38:10;;;;;;;15.23;7.90;;;8.80;99.30;;;;;;5014053;28;20112;-77
2021/11/03 00:40:36;;;;;;;17.85;8.20;;;8.90;99.30;;;;;;5013904;28;20021;-78
2021/11/03 00:43:03;;;;;;;12.00;6.82;;;8.90;99.30;;;;;;5012728;28;20026;-77
2021/11/03 00:45:28;;;;;;;22.23;8.15;;;8.90;99.30;;;;;;5012559;28;20021;-77
2021/11/03 00:47:54;;;;;;;20.30;7.25;;;8.90;99.30;;;;;;5014176;28;20029;-77
2021/11/03 00:50:21;;;;;;;16.60;7.72;;;8.80;99.30;;;;;;5013763;28;20029;-78
2021/11/03 00:52:48;;;;;;;14.70;7.45;;;8.90;99.30;;;;;;5013562;28;20057;-78
2021/11/03 00:55:14;;;;;;;12.95;6.65;;;8.90;99.30;;;;;;5012658;28;20029;-77
2021/11/03 00:57:40;;;;;;;18.48;7.88;;;8.90;99.30;;;;;;5012046;28;20076;-77
2021/11/03 01:00:07;;;;;;;19.63;8.80;;;8.80;99.30;;;;;;5013493;28;20025;-77
2021/11/03 01:02:34;;;;;;;18.17;7.43;;;8.80;99.30;;;;;;5012277;28;20025;-78
2021/11/03 01:05:00;;;;;;;21.15;9.63;;;8.70;99.30;;;;;;5012363;28;20543;-77
2021/11/03 01:07:25;;;;;;;15.27;8.60;;;8.80;99.30;;;;;;5012186;28;20025;-77
2021/11/03 01:09:51;;;;;;;17.42;8.15;;;8.70;99.30;;;;;;5013502;28;20057;-77
2021/11/03 01:12:18;;;;;;;18.35;7.90;;;8.70;99.30;;;;;;5012256;28;20014;-78
2021/11/03 01:14:43;;;;;;;18.38;7.72;;;8.70;99.30;;;;;;5012510;28;20117;-78
2021/11/03 01:17:09;;;;;;;14.48;8.45;;;8.60;99.30;;;;;;5013792;28;20462;-77
2021/11/03 01:19:35;;;;;;;14.73;7.60;;;8.60;99.30;;;;;;5012311;28;20037;-77
2021/11/03 01:22:01;;;;;;;16.10;8.73;;;8.50;99.30;;;;;;5013208;28;20366;-77
2021/11/03 01:24:27;;;;;;;16.73;8.25;;;8.50;99.30;;;;;;5013279;28;20045;-77
2021/11/03 01:26:53;;;;;;;17.55;7.80;;;8.40;99.40;;;;;;5012032;28;20043;-76
2021/11/03 01:29:18;;;;;;;15.48;8.07;;;8.40;99.40;;;;;;5011765;28;20020;-77
2021/11/03 01:31:44;;;;;;;17.73;7.82;;;8.30;99.40;;;;;;5011507;28;20113;-76
2021/11/03 01:34:10;;;;;;;16.25;7.57;;;8.30;99.40;;;;;;5011906;28;20080;-76
2021/11/03 01:36:35;;;;;;;15.63;7.00;;;8.30;99.50;;;;;;5013201;28;20065;-76
2021/11/03 01:39:03;;;;;;;17.63;8.63;;;8.20;99.50;;;;;;5013953;28;20307;-76
2021/11/03 01:41:28;;;;;;;11.93;7.32;;;8.20;99.60;;;;;;5013146;28;20021;-76
2021/11/03 01:44:16;;;;;;;14.02;7.53;;;8.20;99.60;;;;;;5013260;28;20101;-76
2021/11/03 01:46:43;;;;;;;11.73;6.80;;;8.20;99.60;;;;;;5028443;28;20446;-76
2021/11/03 01:49:24;;;;;;;13.95;8.27;;;8.10;99.60;;;;;;5011842;28;20104;-76
2021/11/03 01:51:55;;;;;;;;;;;8.00;99.60;;;;;;5013597;28;20108;-76
2021/11/03 01:54:29;;;;;;;14.32;6.65;;;8.00;99.60;;;;;;5013323;28;20245;-77
2021/11/03 01:56:57;;;;;;;14.50;7.75;;;7.90;99.60;;;;;;5013137;28;20017;-76
2021/11/03 01:59:31;;;;;;;15.77;8.32;;;7.80;99.60;;;;;;5012948;28;20080;-76
2021/11/03 02:01:57;;;;;;;13.70;7.20;;;7.80;99.60;;;;;;5012072;28;20030;-76
2021/11/03 02:04:24;;;;;;;13.98;7.05;;;7.80;99.70;;;;;;5011588;28;20072;-77
2021/11/03 02:06:49;;;;;;;14.35;7.88;;;7.80;99.70;;;;;;5011683;28;20025;-76
2021/11/03 02:09:15;;;;;;;14.70;7.57;;;7.90;99.70;;;;;;5013328;28;20026;-76
2021/11/03 02:11:41;;;;;;;22.10;7.88;;;7.80;99.60;;;;;;5013416;28;20074;-76
2021/11/03 02:14:08;;;;;;;16.75;7.63;;;7.80;99.60;;;;;;5012896;28;20104;-76
2021/11/03 02:16:44;;;;;;;17.48;7.18;;;7.80;99.60;;;;;;5011560;28;20041;-76
2021/11/03 02:19:30;;;;;;;19.23;7.05;;;7.80;99.60;;;;;;5012610;28;20120;-75
2021/11/03 02:22:10;;;;;;;15.20;6.35;;;7.80;99.60;;;;;;5012904;28;20018;-76
2021/11/03 02:25:01;;;;;;;17.40;6.57;;;7.80;99.50;;;;;;5011747;28;20175;-76
2021/11/03 02:27:30;;;;;;;13.38;7.35;;;7.80;99.50;;;;;;5011692;28;20113;-76
2021/11/03 02:29:56;;;;;;;19.42;6.70;;;7.70;99.40;;;;;;5011330;28;20068;-76
2021/11/03 02:32:24;;;;;;;12.25;6.38;;;7.70;99.40;;;;;;5011432;28;20077;-77
2021/11/03 02:34:51;;;;;;;11.05;7.10;;;7.70;99.40;;;;;;5011445;28;20018;-76
2021/11/03 02:37:28;;;;;;;11.30;7.00;;;7.70;99.50;;;;;;5012549;28;20022;-76
2021/11/03 02:40:04;;;;;;;11.43;7.07;;;7.70;99.60;;;;;;5012064;28;20120;-76
2021/11/03 02:42:34;;;;;;;19.65;7.68;;;7.80;99.60;;;;;;5012833;28;20064;-77
2021/11/03 02:45:05;;;;;;;26.33;8.30;;;7.80;99.70;;;;;;5016206;28;20021;-77
2021/11/03 02:47:30;;;;;;;14.45;7.50;;;7.80;99.60;;;;;;5016116;28;20022;-76
2021/11/03 02:49:56;;;;;;;14.75;7.03;;;7.80;99.50;;;;;;5014351;28;20026;-76
2021/11/03 02:52:25;;;;;;;16.70;8.00;;;7.80;99.50;;;;;;5014754;28;20022;-76
2021/11/03 02:54:51;;;;;;;16.88;6.68;;;7.80;99.50;;;;;;5015865;28;20171;-76
2021/11/03 02:57:18;;;;;;;13.43;6.70;;;7.80;99.60;;;;;;5014714;28;20037;-76
2021/11/03 02:59:45;;;;;;;13.95;7.82;;;7.80;99.60;;;;;;5014510;28;20116;-75
2021/11/03 03:02:12;;;;;;;15.07;7.57;;;7.70;99.70;;;;;;5015816;28;20053;-76
2021/11/03 03:04:39;;;;;;;16.38;7.60;;;7.70;99.70;;;;;;5015679;28;20108;-75
2021/11/03 03:07:06;;;;;;;17.33;7.30;;;7.70;99.70;;;;;;5015769;28;20033;-76
2021/11/03 03:09:32;;;;;;;17.73;6.18;;;7.70;99.70;;;;;;5015593;28;20101;-76
2021/11/03 03:12:01;;;;;;;18.17;6.70;;;7.70;99.50;;;;;;5015881;28;20150;-76
2021/11/03 03:14:30;;;;;;;14.18;6.65;;;7.70;99.50;;;;;;5015616;28;20113;-76
2021/11/03 03:16:56;;;;;;;17.55;6.05;;;7.70;99.40;;;;;;5015592;28;20032;-76
2021/11/03 03:19:22;;;;;;;14.18;6.32;;;7.70;99.30;;;;;;5015999;28;20431;-76
2021/11/03 03:21:47;;;;;;;17.42;6.82;;;7.70;99.30;;;;;;5014183;28;20462;-75
2021/11/03 03:24:15;;;;;;;14.48;6.03;;;7.70;99.20;;;;;;5014396;28;20010;-75
2021/11/03 03:26:41;;;;;;;14.02;6.25;;;7.70;99.20;;;;;;5013949;28;20022;-76
2021/11/03 03:29:08;;;;;;;16.83;7.22;;;7.70;99.20;;;;;;5015533;28;20035;-76
2021/11/03 03:31:35;;;;;;;12.77;7.38;;;7.70;99.20;;;;;;5013821;28;20105;-76
2021/11/03 03:34:03;;;;;;;16.83;6.72;;;7.70;99.20;;;;;;5013675;28;20069;-76
2021/11/03 03:36:30;;;;;;;17.77;7.43;;;7.70;99.30;;;;;;5013770;28;20080;-76
2021/11/03 03:38:55;;;;;;;12.50;6.57;;;7.70;99.30;;;;;;5014073;28;20029;-76
2021/11/03 03:41:24;;;;;;;11.32;6.75;;;7.70;99.30;;;;;;5014840;28;20018;-77
2021/11/03 03:43:50;;;;;;;18.00;7.60;;;7.70;99.30;;;;;;5015450;28;20053;-76
2021/11/03 03:46:16;;;;;;;14.98;6.63;;;7.70;99.20;;;;;;5013721;28;20072;-76
2021/11/03 03:48:42;;;;;;;18.10;7.20;;;7.70;99.20;;;;;;5014912;28;20026;-76
2021/11/03 03:51:09;;;;;;;11.63;6.45;;;7.70;99.10;;;;;;5014589;28;20116;-75
2021/11/03 03:53:36;;;;;;;16.70;7.68;;;7.70;99.10;;;;;;5014961;28;20101;-76
2021/11/03 03:56:02;;;;;;;12.88;6.78;;;7.70;99.10;;;;;;5015158;28;20473;-76
2021/11/03 03:58:28;;;;;;;13.63;7.55;;;7.70;99.10;;;;;;5013431;28;20449;-76
2021/11/03 04:00:54;;;;;;;15.45;6.78;;;7.70;99.00;;;;;;5014477;28;20026;-76
2021/11/03 04:03:20;;;;;;;10.82;6.47;;;7.70;99.00;;;;;;5013684;28;20025;-76
2021/11/03 04:05:46;;;;;;;21.92;7.10;;;7.70;99.00;;;;;;5014573;28;20026;-76
2021/11/03 04:08:14;;;;;;;17.90;7.50;;;7.70;99.00;;;;;;5014635;28;20361;-75
2021/11/03 04:10:41;;;;;;;11.95;6.28;;;7.70;99.00;;;;;;5014375;28;20063;-76
2021/11/03 04:13:07;;;;;;;16.85;6.45;;;7.70;99.00;;;;;;5014475;28;20030;-76
2021/11/03 04:15:33;;;;;;;14.75;6.20;;;7.70;99.00;;;;;;5013144;28;20021;-76
2021/11/03 04:17:59;;;;;;;16.33;6.60;;;7.60;99.00;;;;;;5014388;28;20057;-76
2021/11/03 04:20:24;;;;;;;14.23;6.05;;;7.60;99.00;;;;;;5012816;28;20060;-75
2021/11/03 04:22:50;;;;;;;9.98;5.85;;;7.60;99.00;;;;;;5014375;28;20049;-77
2021/11/03 04:25:16;;;;;;;15.45;5.82;;;7.60;99.00;;;;;;5014753;28;20018;-77
2021/11/03 04:27:42;;;;;;;10.68;5.40;;;7.50;99.10;;;;;;5013997;28;20018;-77
2021/11/03 04:30:10;;;;;;;13.38;6.63;;;7.50;99.10;;;;;;5012789;28;20026;-77
2021/11/03 04:32:36;;;;;;;12.32;6.40;;;7.50;99.10;;;;;;5013861;28;20095;-77
2021/11/03 04:35:04;;;;;;;14.88;6.07;;;7.40;99.10;;;;;;5012788;28;20022;-77
2021/11/03 04:37:30;;;;;;;13.35;6.30;;;7.40;99.10;;;;;;5014212;28;20125;-77
2021/11/03 04:39:55;;;;;;;13.73;5.90;;;7.40;99.10;;;;;;5013629;28;20466;-77
2021/11/03 04:42:21;;;;;;;15.75;6.43;;;7.40;99.10;;;;;;5012292;28;20067;-77
2021/11/03 04:44:47;;;;;;;11.25;5.55;;;7.40;99.00;;;;;;5012728;28;20024;-77
2021/11/03 04:47:12;;;;;;;12.23;5.70;;;7.40;99.00;;;;;;5012842;28;20450;-77
2021/11/03 04:49:38;;;;;;;11.23;5.93;;;7.40;99.00;;;;;;5013037;28;20377;-77
2021/11/03 04:52:05;;;;;;;10.15;6.05;;;7.30;99.00;;;;;;5013855;28;20047;-77
2021/11/03 04:54:30;;;;;;;11.40;6.18;;;7.30;99.20;;;;;;5013517;28;20316;-77
2021/11/03 04:56:56;;;;;;;8.73;5.03;;;7.30;99.20;;;;;;5013420;28;20018;-77
2021/11/03 04:59:23;;;;;;;12.10;6.88;;;7.30;99.20;;;;;;5013711;28;20357;-77
2021/11/03 05:01:49;;;;;;;11.25;5.85;;;7.30;99.20;;;;;;5012462;28;20022;-77
2021/11/03 05:04:15;;;;;;;10.48;6.00;;;7.30;99.10;;;;;;5013527;28;20065;-76
2021/11/03 05:06:44;;;;;;;14.38;7.00;;;7.30;99.10;;;;;;5012062;28;20064;-77
2021/11/03 05:09:10;;;;;;;11.45;6.38;;;7.30;99.10;;;;;;5014094;28;20064;-76
2021/11/03 05:11:37;;;;;;;11.45;6.03;;;7.30;99.10;;;;;;5013410;28;20458;-77
2021/11/03 05:14:03;;;;;;;11.43;6.60;;;7.30;99.10;;;;;;5013234;28;20025;-78
2021/11/03 05:16:29;;;;;;;11.98;6.55;;;7.20;99.10;;;;;;5012395;28;20369;-73
2021/11/03 05:18:55;;;;;;;12.10;6.85;;;7.20;99.00;;;;;;5013355;28;20072;-74
2021/11/03 05:21:22;;;;;;;12.50;6.57;;;7.30;99.10;;;;;;5013704;28;20110;-72
2021/11/03 05:23:48;;;;;;;14.15;6.75;;;7.30;99.10;;;;;;5013336;28;20022;-72
2021/11/03 05:26:20;;;;;;;13.23;6.47;;;7.30;99.10;;;;;;5012019;28;20014;-76
2021/11/03 05:28:48;;;;;;;8.73;4.95;;;7.30;99.10;;;;;;5011939;28;20053;-75
2021/11/03 05:31:15;;;;;;;10.43;6.38;;;7.30;99.00;;;;;;5011911;28;20033;-76
2021/11/03 05:33:40;;;;;;;15.98;10.23;;;7.30;99.10;;;;;;5011716;28;20058;-76
2021/11/03 05:36:06;;;;;;;12.73;6.97;;;7.40;99.10;;;;;;5013331;28;20421;-76
2021/11/03 05:38:32;;;;;;;18.38;7.15;;;7.40;99.00;;;;;;5013233;28;20033;-76
2021/11/03 05:40:58;;;;;;;21.63;6.90;;;7.40;99.00;;;;;;5013052;28;20038;-76
2021/11/03 05:43:23;;;;;;;19.33;6.57;;;7.30;99.00;;;;;;5013472;28;20069;-76
2021/11/03 05:45:50;;;;;;;16.38;6.05;;;7.30;99.00;;;;;;5012767;28;20496;-76
2021/11/03 05:48:16;;;;;;;11.13;5.43;;;7.30;99.00;;;;;;5013078;28;20040;-76
2021/11/03 05:50:42;;;;;;;12.02;6.07;;;7.30;98.90;;;;;;5012916;28;20034;-76
2021/11/03 05:53:07;;;;;;;10.70;5.32;;;7.30;98.90;;;;;;5011782;28;20029;-76
2021/11/03 05:55:34;;;;;;;13.10;5.95;;;7.30;98.90;;;;;;5011753;28;20053;-76
2021/11/03 05:58:00;;;;;;;10.40;5.97;;;7.30;98.90;;;;;;5012962;28;20120;-76
2021/11/03 06:00:34;;;;;;;12.02;6.07;;;7.30;98.90;;;;;;5014031;28;20454;-76
2021/11/03 06:03:01;;;;;;;17.13;6.82;;;7.20;98.80;;;;;;5012589;28;20032;-77
2021/11/03 06:05:27;;;;;;;18.88;6.80;;;7.20;98.80;;;;;;5012395;28;20018;-77
2021/11/03 06:07:56;;;;;;;14.63;6.03;;;7.30;98.90;;;;;;5012596;28;20377;-77
2021/11/03 06:10:26;;;;;;;14.77;6.70;;;7.20;98.80;;;;;;5011817;28;20425;-76
2021/11/03 06:12:53;;;;;;;13.65;6.57;;;7.20;98.80;;;;;;5013002;28;20018;-77
2021/11/03 06:15:19;;;;;;;11.98;6.00;;;7.20;98.80;;;;;;5012939;28;20077;-77
2021/11/03 06:17:45;;;;;;;13.77;6.63;;;7.20;98.80;;;;;;5014549;28;20105;-77
2021/11/03 06:20:10;;;;;;;11.57;6.75;;;7.20;98.70;;;;;;5016362;28;20084;-77
2021/11/03 06:22:36;;;;;;;18.55;8.02;;;7.20;98.70;;;;;;5017331;28;20052;-77
2021/11/03 06:25:04;;;;;;;16.38;6.88;;;7.20;98.80;;;;;;5016426;28;20374;-77
2021/11/03 06:27:30;;;;;;;13.35;6.85;;;7.20;98.80;;;;;;5016452;28;20471;-78
2021/11/03 06:29:56;;;;;;;10.98;6.35;;;7.20;98.80;;;;;;5016521;28;20120;-77
2021/11/03 06:32:22;;;;;;;18.55;7.00;;;7.20;98.80;;;;;;5015414;28;20122;-77
2021/11/03 06:34:47;;;;;;;12.85;7.28;;;7.20;98.80;;;;;;5016014;28;20392;-78
2021/11/03 06:37:13;;;;;;;15.43;7.22;;;7.20;98.80;;;;;;5015230;28;20481;-76
2021/11/03 06:39:39;;;;;;;16.20;7.75;;;7.30;98.80;;;;;;5015726;28;20390;-76
2021/11/03 06:42:05;;;;;;;13.30;6.78;;;7.30;98.80;;;;;;5016173;28;20033;-77
2021/11/03 06:44:31;;;;;;;13.45;7.47;;;7.30;98.90;;;;;;5016579;28;20026;-76
2021/11/03 06:46:56;;;;;;;13.10;7.10;;;7.30;99.00;;;;;;5016090;28;20061;-77
2021/11/03 06:49:23;;;;;;;12.38;7.90;;;7.30;99.00;;;;;;5014735;28;20113;-77
2021/11/03 06:51:48;;;;;;;13.82;7.60;;;7.40;99.10;;;;;;5015766;28;20545;-77
2021/11/03 06:54:14;;;;;;;12.57;6.70;;;7.30;99.10;;;;;;5014571;28;20105;-77
2021/11/03 06:56:40;;;;;;;14.60;7.22;;;7.40;99.10;;;;;;5014762;28;20017;-78
2021/11/03 06:59:07;;;;;;;13.20;7.55;;;7.40;99.00;;;;;;5016018;28;20048;-76
2021/11/03 07:01:33;;;;;;;13.00;7.63;;;7.40;99.00;;;;;;5014346;28;20351;-75
2021/11/03 07:04:01;;;;;;;14.70;6.93;;;7.40;99.00;;;;;;5015038;28;20025;-75
2021/11/03 07:06:28;;;;;;;15.07;7.82;;;7.40;98.90;;;;;;5014386;28;20022;-75
2021/11/03 07:08:57;;;;;;;12.63;7.05;;;7.40;98.90;;;;;;5015604;28;20022;-74
2021/11/03 07:11:24;;;;;;;13.60;7.72;;;7.40;98.90;;;;;;5014245;28;20120;-75
2021/11/03 07:13:49;;;;;;;15.15;7.78;;;7.50;98.90;;;;;;5014432;28;20029;-76
2021/11/03 07:16:15;;;;;;;12.68;7.25;;;7.50;98.90;;;;;;5015565;28;20021;-76
2021/11/03 07:18:41;;;;;;;15.90;8.73;;;7.50;98.90;;;;;;5014151;28;20026;-76
2021/11/03 07:21:07;;;;;;;14.80;7.72;;;7.50;98.80;;;;;;5014956;28;20056;-76
2021/11/03 07:23:32;;;;;;;16.27;8.07;;;7.40;98.70;;;;;;5015419;28;20030;-76
2021/11/03 07:25:58;;;;;;;16.63;7.07;;;7.40;98.70;;;;;;5013998;28;20022;-76
2021/11/03 07:28:24;;;;;;;16.15;8.52;;;7.40;98.80;;;;;;5013452;28;20466;-76
2021/11/03 07:30:50;;;;;;;15.15;8.13;;;7.50;98.80;;;;;;5013825;28;20038;-76
2021/11/03 07:33:16;;;;;;;13.25;7.22;;;7.50;98.80;;;;;;5015144;28;20414;-77
2021/11/03 07:35:42;;;;;;;14.77;8.50;;;7.50;98.80;;;;;;5013457;28;20466;-76
2021/11/03 07:38:10;;;;;;;16.02;8.32;;;7.50;98.80;;;;;;5013724;28;20037;-76
2021/11/03 07:40:40;;;;;;;14.93;8.35;;;7.50;98.80;;;;;;5013743;28;20084;-75
2021/11/03 07:43:07;;;;;;;14.02;7.43;;;7.60;98.80;;;;;;5013543;28;20022;-76
2021/11/03 07:45:35;;;;;;;12.77;7.32;;;7.60;98.90;;;;;;5013859;28;20080;-76
2021/11/03 07:48:02;;;;;;;13.05;7.85;;;7.60;98.90;;;;;;5013749;28;20022;-76
2021/11/03 07:50:33;;;;;;;14.73;8.07;;;7.60;99.00;;;;;;5013361;28;20068;-76
2021/11/03 07:52:59;;;;;;;15.98;8.80;;;7.60;99.00;;;;;;5013255;28;20021;-76
2021/11/03 07:55:25;;;;;;;13.18;7.70;;;7.70;99.00;;;;;;5014205;28;20103;-76
2021/11/03 07:57:51;;;;;;;16.13;8.30;;;7.70;99.00;;;;;;5014653;28;20454;-76
2021/11/03 08:00:29;;;;;;;14.20;8.43;;;7.70;99.00;;;;;;5014679;28;20026;-76
2021/11/03 08:02:56;;;;;;;15.57;7.68;;;7.70;98.90;;;;;;5013575;28;20374;-75
2021/11/03 08:05:27;;;;;;;13.48;8.05;;;7.80;98.80;;;;;;5015539;28;20029;-75
2021/11/03 08:07:53;;;;;;;15.90;8.52;;;7.80;98.80;;;;;;5014375;28;20363;-76
2021/11/03 08:10:19;;;;;;;15.00;8.73;;;7.80;98.80;;;;;;5013290;28;20033;-76
2021/11/03 08:12:46;;;;;;;13.18;7.47;;;7.80;98.90;;;;;;5014596;28;20083;-76
2021/11/03 08:15:12;;;;;;;16.27;8.00;;;7.80;98.90;;;;;;5014844;28;20028;-76
2021/11/03 08:17:40;;;;;;;14.50;8.07;;;7.80;98.90;;;;;;5014339;28;20116;-76
2021/11/03 08:20:09;;;;;;;14.50;7.85;;;7.80;99.00;;;;;;5014250;28;20469;-76
2021/11/03 08:22:35;;;;;;;16.30;7.38;;;7.90;99.00;;;;;;4996466;28;20105;-75
2021/11/03 08:25:01;;;;;;;15.48;8.18;;;7.90;98.90;;;;;;5013107;28;20041;-76
2021/11/03 08:27:27;;;;;;;17.73;9.23;;;7.90;98.90;;;;;;5013040;28;20076;-76
2021/11/03 08:29:53;;;;;;;14.43;8.23;;;7.90;98.90;;;;;;5013963;28;20034;-77
2021/11/03 08:32:27;;;;;;;12.98;7.70;;;7.90;98.80;;;;;;5012235;28;20490;-76
2021/11/03 08:34:54;;;;;;;16.60;8.88;;;8.00;98.80;;;;;;5012888;28;20026;-76
2021/11/03 08:37:22;;;;;;;16.05;8.27;;;8.00;98.70;;;;;;5012484;28;20112;-76
2021/11/03 08:39:52;;;;;;;16.55;8.77;;;8.00;98.70;;;;;;5012110;28;20033;-76
2021/11/03 08:42:19;;;;;;;13.63;7.95;;;8.10;98.70;;;;;;5013883;28;20033;-76
2021/11/03 08:44:44;;;;;;;13.88;8.27;;;8.10;99.00;;;;;;5012339;28;20116;-75
2021/11/03 08:47:11;;;;;;;15.10;8.70;;;8.10;98.80;;;;;;5013633;28;20105;-76
2021/11/03 08:49:39;;;;;;;17.17;9.00;;;8.10;98.80;;;;;;5012548;28;20069;-75
2021/11/03 08:52:05;;;;;;;16.15;8.32;;;8.00;98.70;;;;;;5013634;28;20030;-75
2021/11/03 08:54:36;;;;;;;15.32;8.60;;;8.00;98.80;;;;;;5013793;28;20101;-75
2021/11/03 08:57:01;;;;;;;15.13;8.45;;;8.00;98.80;;;;;;5012432;28;20029;-76
2021/11/03 08:59:28;;;;;;;16.20;9.02;;;8.00;98.80;;;;;;5012254;28;20030;-76
2021/11/03 09:01:54;;;;;;;18.15;9.05;;;8.00;98.80;;;;;;5013175;28;20378;-76
2021/11/03 09:04:19;;;;;;;15.85;8.63;;;8.00;98.80;;;;;;5013240;28;20022;-76
2021/11/03 09:06:45;;;;;;;16.75;9.35;;;8.00;98.80;;;;;;5012358;28;20026;-76
2021/11/03 09:09:11;;;;;;;15.75;9.07;;;8.10;98.80;;;;;;5012132;28;20160;-75
2021/11/03 09:11:37;;;;;;;13.40;7.82;;;8.10;98.80;;;;;;5013387;28;20065;-76
2021/11/03 09:14:03;;;;;;;17.50;9.20;;;8.10;98.70;;;;;;5013489;28;20022;-75
2021/11/03 09:16:29;;;;;;;14.90;9.43;;;8.20;98.70;;;;;;5012005;28;20022;-75
2021/11/03 09:18:55;;;;;;;19.48;10.30;;;8.20;98.70;;;;;;5013560;28;20087;-75
2021/11/03 09:21:22;;;;;;;15.75;8.73;;;8.20;98.60;;;;;;5011992;28;20033;-75
2021/11/03 09:23:49;;;;;;;17.73;9.07;;;8.30;98.60;;;;;;5011803;28;20108;-76
2021/11/03 09:26:16;;;;;;;17.33;9.30;;;8.30;98.60;;;;;;5013105;28;20030;-75
2021/11/03 09:28:44;;;;;;;16.05;9.38;;;8.30;98.50;;;;;;5013106;28;20018;-76
2021/11/03 09:31:11;;;;;;;18.17;9.65;;;8.40;98.50;;;;;;5013050;28;20034;-77
2021/11/03 09:33:37;;;;;;;18.88;10.23;;;8.50;98.50;;;;;;5013059;28;20070;-75
2021/11/03 09:36:07;;;;;;;18.02;10.30;;;8.50;98.50;;;;;;5011974;28;20018;-75
2021/11/03 09:38:34;;;;;;;19.08;10.55;;;8.50;98.50;;;;;;5013023;28;20065;-76
2021/11/03 09:41:12;;;;;;;18.70;9.75;;;8.60;98.50;;;;;;5013237;28;20113;-76
2021/11/03 09:44:00;;;;;;;18.30;9.57;;;8.60;98.50;;;;;;5013139;28;20104;-76
2021/11/03 09:46:27;;;;;;;17.90;9.98;;;8.70;98.60;;;;;;5011991;28;20377;-75
2021/11/03 09:49:05;;;;;;;17.95;9.90;;;8.70;98.50;;;;;;5013353;28;20104;-76
2021/11/03 09:51:33;;;;;;;15.60;8.52;;;8.70;98.50;;;;;;5014877;28;20036;-76
2021/11/03 09:54:01;;;;;;;15.68;9.45;;;8.70;98.50;;;;;;5015684;28;20026;-76
2021/11/03 09:56:44;;;;;;;17.10;9.75;;;8.70;98.50;;;;;;5015454;28;20033;-76
2021/11/03 09:59:38;;;;;;;17.20;9.13;;;8.70;98.60;;;;;;5016384;28;20084;-76
2021/11/03 10:02:50;;;;;;;18.58;9.35;;;8.70;98.60;;;;;;5015561;28;20026;-76
2021/11/03 10:05:23;;;;;;;15.38;8.38;;;8.80;98.60;;;;;;5015559;28;20022;-76
2021/11/03 10:08:00;;;;;;;14.73;9.10;;;8.80;98.50;;;;;;5015375;28;20488;-76
2021/11/03 10:10:30;;;;;;;18.48;9.95;;;8.80;98.50;;;;;;5015439;28;20164;-76
2021/11/03 10:12:57;;;;;;;17.38;10.25;;;8.90;98.50;;;;;;5015326;28;20025;-76
2021/11/03 10:15:25;;;;;;;15.80;9.00;;;9.00;98.50;;;;;;5016778;28;20022;-76
2021/11/03 10:18:17;;;;;;;16.25;9.07;;;9.00;98.50;;;;;;5016686;28;20105;-76
2021/11/03 10:21:17;;;;;;;15.68;10.07;;;9.20;98.50;;;;;;5015224;28;20036;-76
2021/11/03 10:24:09;;;;;;;16.35;9.10;;;9.30;98.40;;;;;;5015044;28;20076;-76
2021/11/03 10:26:53;;;;;;;15.60;8.98;;;9.40;98.30;;;;;;4999761;28;20034;-76
2021/11/03 10:29:29;;;;;;;15.70;9.35;;;9.40;98.20;;;;;;5016768;28;20033;-76
2021/11/03 10:32:10;;;;;;;18.75;10.50;;;9.50;98.10;;;;;;5014670;28;20091;-75
2021/11/03 10:34:35;;;;;;;17.83;10.18;;;9.60;98.10;;;;;;5015222;28;20026;-76
2021/11/03 10:37:25;;;;;;;17.10;9.13;;;9.60;98.00;;;;;;5014945;28;20037;-76
2021/11/03 10:40:06;;;;;;;18.88;10.43;;;9.70;98.00;;;;;;5014463;28;20033;-75
2021/11/03 10:42:40;;;;;;;20.73;10.20;;;9.80;98.00;;;;;;5016531;28;20057;-75
2021/11/03 10:45:23;;;;;;;17.02;9.75;;;9.90;97.90;;;;;;5016260;28;20030;-75
2021/11/03 10:47:55;;;;;;;17.58;9.82;;;10.00;97.90;;;;;;5015919;28;20022;-75
2021/11/03 10:50:23;;;;;;;;;;;10.00;97.90;;;;;;5015218;28;20124;-75
2021/11/03 10:52:59;;;;;;;17.25;9.90;;;10.00;97.90;;;;;;5016286;28;19909;-75
2021/11/03 10:55:28;;;;;;;17.42;10.27;;;10.10;97.80;;;;;;5015967;28;20033;-75
2021/11/03 10:58:20;;;;;;;18.10;9.82;;;10.10;97.80;;;;;;5015315;28;20022;-77
2021/11/03 11:01:04;;;;;;;18.17;10.48;;;10.20;97.80;;;;;;5015241;28;20042;-75
2021/11/03 11:03:55;;;;;;;20.23;10.25;;;10.20;97.70;;;;;;5014844;28;20022;-76
2021/11/03 11:06:27;;;;;;;15.25;9.02;;;10.30;97.70;;;;;;5014533;28;20373;-76
2021/11/03 11:09:11;;;;;;;20.25;11.00;;;10.30;97.70;;;;;;5014479;28;20030;-76
2021/11/03 11:11:40;;;;;;;20.70;10.93;;;10.40;97.70;;;;;;5016073;28;20066;-75
2021/11/03 11:14:18;;;;;;;18.98;10.85;;;10.40;97.60;;;;;;5015370;28;20465;-75
2021/11/03 11:16:56;;;;;;;16.75;10.75;;;10.40;97.70;;;;;;5014125;28;20450;-76
2021/11/03 11:19:36;;;;;;;19.13;10.63;;;10.40;97.90;;;;;;5015855;28;20026;-76
2021/11/03 11:22:44;;;;;;;22.80;10.98;;;10.40;97.70;;;;;;5014399;28;20026;-76
2021/11/03 11:25:15;;;;;;;18.40;9.40;;;10.50;97.70;;;;;;5014157;28;20457;-76
2021/11/03 11:28:18;;;;;;;18.42;10.77;;;10.50;97.90;;;;;;5015803;28;20029;-76
2021/11/03 11:31:08;;;;;;;19.02;10.45;;;10.60;97.60;;;;;;5014205;28;20030;-76
2021/11/03 11:33:44;;;;;;;20.95;10.30;;;10.60;97.70;;;;;;5014000;28;20339;-76
2021/11/03 11:36:21;;;;;;;19.73;11.10;;;10.60;97.70;;;;;;5015382;28;20168;-76
2021/11/03 11:39:13;;;;;;;17.48;10.15;;;10.60;97.80;;;;;;5015836;28;20516;-75
2021/11/03 11:41:50;;;;;;;;;;;10.60;97.70;;;;;;5015542;28;20034;-76
2021/11/03 11:44:31;;;;;;;19.13;10.50;;;10.50;97.60;;;;;;5014901;28;19906;-75
2021/11/03 11:47:01;;;;;;;21.08;10.65;;;10.50;97.60;;;;;;5013829;28;20030;-76
2021/11/03 11:49:38;;;;;;;18.63;10.23;;;10.50;97.70;;;;;;5013492;28;20025;-75
2021/11/03 11:52:22;;;;;;;17.05;10.52;;;10.50;97.70;;;;;;5014272;28;20038;-75
2021/11/03 11:55:17;;;;;;;17.38;10.40;;;10.60;97.70;;;;;;5013650;28;20101;-76
2021/11/03 11:58:05;;;;;;;19.60;10.50;;;10.60;97.70;;;;;;5014801;28;20109;-76
2021/11/03 12:00:32;;;;;;;19.38;12.07;;;10.60;97.70;;;;;;5014011;28;20026;-76
2021/11/03 12:03:07;;;;;;;19.75;11.35;;;10.60;97.60;;;;;;5013431;28;20208;-76
2021/11/03 12:05:47;;;;;;;20.50;11.23;;;10.70;97.70;;;;;;5015173;28;20030;-76
2021/11/03 12:08:20;;;;;;;17.63;10.63;;;10.70;97.60;;;;;;5014635;28;20022;-76
2021/11/03 12:10:55;;;;;;;18.95;11.43;;;10.70;97.60;;;;;;5014946;28;20026;-76
2021/11/03 12:13:27;;;;;;;23.27;11.52;;;10.80;97.70;;;;;;5014343;28;20479;-76
2021/11/03 12:15:53;;;;;;;23.48;10.60;;;10.80;97.70;;;;;;5013291;28;20033;-76
2021/11/03 12:18:24;;;;;;;22.92;11.75;;;10.80;97.70;;;;;;5013933;28;20074;-76
2021/11/03 12:21:13;;;;;;;19.45;11.73;;;10.80;97.70;;;;;;5014265;28;20030;-76
2021/11/03 12:23:55;;;;;;;20.80;11.45;;;10.90;97.70;;;;;;5014223;28;20120;-76
2021/11/03 12:26:27;;;;;;;22.40;12.57;;;10.90;97.70;;;;;;5013911;28;20445;-76
2021/11/03 12:29:13;;;;;;;19.13;11.15;;;10.90;97.60;;;;;;5013888;28;20118;-76
2021/11/03 12:31:49;;;;;;;18.20;10.18;;;10.90;97.60;;;;;;5014338;28;20435;-76
2021/11/03 12:34:27;;;;;;;20.77;12.02;;;10.90;97.60;;;;;;5012291;28;20145;-76
2021/11/03 12:36:56;;;;;;;17.38;10.98;;;10.90;97.60;;;;;;5013234;28;20026;-76
2021/11/03 12:39:28;;;;;;;22.38;11.68;;;10.90;97.60;;;;;;5013872;28;20022;-76
2021/11/03 12:41:54;;;;;;;;;;;10.90;97.60;;;;;;5013039;28;20034;-76
2021/11/03 12:44:27;;;;;;;18.10;10.05;;;10.90;97.60;;;;;;5012444;28;19912;-75
2021/11/03 12:46:54;;;;;;;19.10;10.48;;;10.90;97.60;;;;;;5013886;28;20113;-75
2021/11/03 12:49:24;;;;;;;19.40;10.68;;;10.90;97.60;;;;;;5014125;28;20101;-75
2021/11/03 12:51:58;;;;;;;18.85;10.10;;;10.90;97.70;;;;;;5013064;28;20057;-75
2021/11/03 12:54:31;;;;;;;18.52;10.63;;;10.80;97.80;;;;;;5013791;28;20105;-76
2021/11/03 12:57:03;;;;;;;18.17;10.27;;;10.90;97.90;;;;;;5013863;28;20022;-76
2021/11/03 12:59:33;;;;;;;21.35;10.88;;;10.90;97.90;;;;;;5012358;28;20481;-78